Phoenix, Arizona
Traffic Map
Current Weather Conditions
Phoenix, Arizona
Scattered Clouds
Scattered Clouds
30°
Feels Like: 31°
Wind Chill: 30° Ceiling: Unl
Heat Index: 31° Visibility: 10mi
Dew Point: 18° Wind: 12mph
Humidity: 49% Direction: 80° (E)
Pressure: 29.91in Gusts: 0mph
Raw Report DataKPHX 020751Z 08010KT 10SM SCT120 SCT150 SCT250 30/18 A2991 RMK AO2 SLP108 T03000183
Traffic Incident Summary
Active as of:
Severity:
Category:
InformationThere was an issue retrieving the traffic information for this location. Please try a different location or try again shortly.
Advertisements
Track Severe Weather on mobile